Time;durP1;ratioP1;P1;durP2;ratioP2;P2;SDS_P1;SDS_P2;PMS_P1;PMS_P2;Temp;Humidity;BMP_temperature;BMP_pressure;BME280_temperature;BME280_humidity;BME280_pressure;Samples;Min_cycle;Max_cycle;Signal;HPM_P1;HPM_P2
2022/03/16 00:01:20;;;;;;;;;;;;;;;20.59;26.57;102045.31;103432;1320;60863;-84
2022/03/16 00:04:06;;;;;;;;;;;;;;;20.58;26.58;102041.22;103443;1320;61934;-83
2022/03/16 00:06:39;;;;;;;;;;;;;;;20.58;26.64;102033.53;103574;1319;72715;-84
2022/03/16 00:09:07;;;;;;;;;;;;;;;20.58;26.54;102033.35;103580;1319;76965;-84
2022/03/16 00:11:36;;;;;;;;;;;;;;;20.58;26.64;102020.84;103425;1319;60702;-87
2022/03/16 00:14:12;;;;;;;;;;;;;;;20.58;26.69;102006.90;103605;1319;61982;-83
2022/03/16 00:16:45;;;;;;;;;;;;;;;20.57;26.57;102005.31;103387;1319;73314;-85
2022/03/16 00:19:40;;;;;;;;;;;;;;;20.57;26.49;102010.67;103612;1319;76622;-83
2022/03/16 00:22:06;;;;;;;;;;;;;;;20.56;26.67;102003.41;103422;1319;62131;-84
2022/03/16 00:24:31;;;;;;;;;;;;;;;20.56;26.52;101991.23;103590;1319;62119;-86
2022/03/16 00:27:14;;;;;;;;;;;;;;;;;;;;;
2022/03/16 00:29:40;;;;;;;;;;;;;;;20.55;26.50;101996.15;103416;1319;75887;-83
2022/03/16 00:32:14;;;;;;;;;;;;;;;20.55;26.65;102005.27;103600;1319;62000;-84
2022/03/16 00:34:49;;;;;;;;;;;;;;;20.54;26.71;101995.61;103426;1320;62232;-82
2022/03/16 00:37:46;;;;;;;;;;;;;;;;;;;;;
2022/03/16 00:40:14;;;;;;;;;;;;;;;20.54;26.77;101981.52;103397;1319;75821;-85
2022/03/16 00:42:40;;;;;;;;;;;;;;;20.54;26.82;101981.88;103421;1320;62003;-80
2022/03/16 00:45:11;;;;;;;;;;;;;;;20.53;26.48;101984.41;103384;1320;62112;-88
2022/03/16 00:47:57;;;;;;;;;;;;;;;20.53;26.61;101977.80;103185;1322;74294;-83
2022/03/16 00:50:45;;;;;;;;;;;;;;;20.53;26.56;101985.68;102958;1323;74590;-86
2022/03/16 00:53:33;;;;;;;;;;;;;;;20.53;26.60;101991.40;102794;1323;62135;-88
2022/03/16 00:56:19;;;;;;;;;;;;;;;20.53;26.59;101984.81;103056;1323;62102;-87
2022/03/16 00:59:06;;;;;;;;;;;;;;;20.53;26.61;101968.36;103066;1323;73812;-88
2022/03/16 01:01:45;;;;;;;;;;;;;;;20.53;26.59;101954.39;103067;1323;75720;-85
2022/03/16 01:04:22;;;;;;;;;;;;;;;20.52;26.59;101959.23;103092;1321;62012;-85
2022/03/16 01:06:49;;;;;;;;;;;;;;;20.52;26.63;101966.23;103107;1320;62063;-86
2022/03/16 01:09:44;;;;;;;;;;;;;;;20.52;26.61;101956.77;103058;1322;73379;-82
2022/03/16 01:12:20;;;;;;;;;;;;;;;20.51;26.62;101943.02;103071;1323;75616;-84
2022/03/16 01:15:09;;;;;;;;;;;;;;;20.51;26.62;101937.13;103025;1321;62092;-83
2022/03/16 01:18:02;;;;;;;;;;;;;;;20.52;26.57;101942.84;102930;1325;63340;-83
2022/03/16 01:20:52;;;;;;;;;;;;;;;20.51;26.64;101938.02;102990;1325;72175;-85
2022/03/16 01:23:28;;;;;;;;;;;;;;;20.51;26.68;101953.41;102934;1325;75861;-85
2022/03/16 01:26:14;;;;;;;;;;;;;;;20.51;26.58;101953.23;102958;1323;62266;-84
2022/03/16 01:29:09;;;;;;;;;;;;;;;20.50;26.63;101944.13;103066;1322;63149;-85
2022/03/16 01:31:44;;;;;;;;;;;;;;;20.50;26.66;101935.20;103074;1323;74458;-82
2022/03/16 01:34:21;;;;;;;;;;;;;;;20.50;26.60;101923.59;103050;1323;75603;-84
2022/03/16 01:37:15;;;;;;;;;;;;;;;;;;;;;
2022/03/16 01:39:50;;;;;;;;;;;;;;;20.50;26.62;101916.83;103009;1323;62034;-82
2022/03/16 01:42:27;;;;;;;;;;;;;;;20.50;26.55;101908.41;103017;1323;72899;-84
2022/03/16 01:44:57;;;;;;;;;;;;;;;20.49;26.63;101902.53;102770;1325;76685;-84
2022/03/16 01:47:26;;;;;;;;;;;;;;;20.49;26.63;101908.24;103101;1323;61931;-82
2022/03/16 01:49:55;;;;;;;;;;;;;;;20.49;26.60;101909.00;103094;1323;61995;-83
2022/03/16 01:52:51;;;;;;;;;;;;;;;;;;;;;
2022/03/16 01:55:33;;;;;;;;;;;;;;;20.48;26.66;101910.29;103174;1320;76176;-85
2022/03/16 01:58:07;;;;;;;;;;;;;;;20.48;26.58;101902.42;103272;1317;62039;-82
2022/03/16 02:00:43;;;;;;;;;;;;;;;20.47;26.58;101894.41;103315;1320;62125;-83
2022/03/16 02:03:22;;;;;;;;;;;;;;;20.47;26.70;101885.48;103560;1319;72873;-82
2022/03/16 02:05:56;;;;;;;;;;;;;;;20.47;26.52;101878.34;103570;1319;76501;-82
2022/03/16 02:08:35;;;;;;;;;;;;;;;;;;;;;
2022/03/16 02:11:40;;;;;;;;;;;;;;;;;;;;;
2022/03/16 02:14:26;;;;;;;;;;;;;;;20.47;26.61;101854.59;102760;1327;74006;-87
2022/03/16 02:17:02;;;;;;;;;;;;;;;;;;;;;
2022/03/16 02:19:37;;;;;;;;;;;;;;;20.47;26.60;101852.80;102729;1329;62130;-87
2022/03/16 02:22:18;;;;;;;;;;;;;;;;;;;;;
2022/03/16 02:24:49;;;;;;;;;;;;;;;20.46;26.70;101854.09;102745;1329;73281;-83
2022/03/16 02:27:17;;;;;;;;;;;;;;;20.46;26.60;101852.30;102704;1329;76831;-86
2022/03/16 02:29:47;;;;;;;;;;;;;;;20.46;26.61;101841.93;102703;1329;62129;-83
2022/03/16 02:32:23;;;;;;;;;;;;;;;20.45;26.64;101836.96;102756;1327;62155;-85
2022/03/16 02:35:11;;;;;;;;;;;;;;;20.45;26.70;101839.65;102746;1329;73015;-83
2022/03/16 02:37:52;;;;;;;;;;;;;;;20.45;26.66;101835.55;102747;1329;75601;-83
2022/03/16 02:40:28;;;;;;;;;;;;;;;20.44;26.64;101832.54;102726;1329;62114;-82
2022/03/16 02:43:02;;;;;;;;;;;;;;;20.44;26.63;101833.41;102748;1329;62053;-87
2022/03/16 02:45:52;;;;;;;;;;;;;;;20.44;26.61;101831.83;102688;1329;72868;-80
2022/03/16 02:48:25;;;;;;;;;;;;;;;20.44;26.64;101824.14;102728;1329;75752;-83
2022/03/16 02:51:10;;;;;;;;;;;;;;;20.43;26.67;101818.63;102871;1320;61584;-86
2022/03/16 02:53:39;;;;;;;;;;;;;;;20.43;26.70;101818.80;103380;1320;61974;-82
2022/03/16 02:56:26;;;;;;;;;;;;;;;;;;;;;
2022/03/16 02:59:09;;;;;;;;;;;;;;;;;;;;;
2022/03/16 03:01:42;;;;;;;;;;;;;;;20.42;26.61;101814.20;103319;1321;62017;-83
2022/03/16 03:04:28;;;;;;;;;;;;;;;20.42;26.62;101805.25;103236;1320;62223;-83
2022/03/16 03:07:12;;;;;;;;;;;;;;;20.42;26.68;101807.80;103236;1320;72602;-82
2022/03/16 03:09:58;;;;;;;;;;;;;;;20.42;26.60;101808.33;103370;1320;75585;-86
2022/03/16 03:12:23;;;;;;;;;;;;;;;20.42;26.61;101812.28;103279;1320;62300;-86
2022/03/16 03:15:00;;;;;;;;;;;;;;;20.41;26.60;101813.01;103383;1320;62055;-83
2022/03/16 03:17:38;;;;;;;;;;;;;;;;;;;;;
2022/03/16 03:20:06;;;;;;;;;;;;;;;20.40;26.64;101797.14;103380;1320;75825;-83
2022/03/16 03:22:41;;;;;;;;;;;;;;;20.40;26.64;101792.84;103213;1320;62052;-85
2022/03/16 03:25:19;;;;;;;;;;;;;;;20.40;26.60;101782.84;103220;1320;62087;-80
2022/03/16 03:27:44;;;;;;;;;;;;;;;20.40;26.65;101783.41;103235;1321;73938;-86
2022/03/16 03:30:22;;;;;;;;;;;;;;;20.40;26.61;101791.27;103280;1320;76759;-84
2022/03/16 03:33:15;;;;;;;;;;;;;;;20.40;26.61;101786.80;103193;1320;62119;-84
2022/03/16 03:35:43;;;;;;;;;;;;;;;20.40;26.63;101769.11;103228;1320;62117;-86
2022/03/16 03:38:23;;;;;;;;;;;;;;;;;;;;;
2022/03/16 03:40:49;;;;;;;;;;;;;;;20.39;26.59;101774.52;103231;1320;75449;-86
2022/03/16 03:43:44;;;;;;;;;;;;;;;20.39;26.62;101774.90;103236;1320;62122;-85
2022/03/16 03:46:17;;;;;;;;;;;;;;;20.38;26.64;101777.77;103290;1320;62097;-87
2022/03/16 03:48:52;;;;;;;;;;;;;;;20.38;26.68;101775.64;103273;1322;73763;-84
2022/03/16 03:51:20;;;;;;;;;;;;;;;20.38;26.72;101771.70;103065;1323;76514;-83
2022/03/16 03:53:57;;;;;;;;;;;;;;;20.38;26.73;101775.83;103298;1322;61890;-86
2022/03/16 03:56:26;;;;;;;;;;;;;;;20.37;26.68;101780.30;103058;1324;62130;-86
2022/03/16 03:59:03;;;;;;;;;;;;;;;20.37;26.68;101779.06;103156;1322;73915;-86
2022/03/16 04:01:30;;;;;;;;;;;;;;;20.37;26.68;101772.12;103133;1323;75660;-84
2022/03/16 04:04:04;;;;;;;;;;;;;;;20.37;26.66;101768.89;103136;1322;61883;-86
2022/03/16 04:06:33;;;;;;;;;;;;;;;20.36;26.64;101766.78;103120;1322;62138;-85
2022/03/16 04:08:59;;;;;;;;;;;;;;;20.37;26.61;101768.73;103110;1322;73897;-83
2022/03/16 04:11:33;;;;;;;;;;;;;;;20.36;26.63;101773.22;103152;1321;76895;-82
2022/03/16 04:14:23;;;;;;;;;;;;;;;20.36;26.66;101766.43;103301;1319;61970;-80
2022/03/16 04:17:08;;;;;;;;;;;;;;;20.35;26.63;101766.30;103356;1320;61971;-84
2022/03/16 04:19:41;;;;;;;;;;;;;;;20.35;26.77;101768.45;103370;1320;72874;-84
2022/03/16 04:22:18;;;;;;;;;;;;;;;;;;;;;
2022/03/16 04:24:53;;;;;;;;;;;;;;;20.35;26.66;101762.92;103286;1320;62091;-83
2022/03/16 04:27:42;;;;;;;;;;;;;;;20.35;26.65;101767.76;103201;1320;62331;-85
2022/03/16 04:30:08;;;;;;;;;;;;;;;20.34;26.63;101767.79;103296;1321;73080;-82
2022/03/16 04:32:52;;;;;;;;;;;;;;;20.35;26.72;101758.83;103090;1323;74652;-84
2022/03/16 04:35:33;;;;;;;;;;;;;;;20.35;26.76;101751.50;103274;1320;61880;-83
2022/03/16 04:38:31;;;;;;;;;;;;;;;20.34;26.74;101748.29;103191;1322;61973;-80
2022/03/16 04:41:06;;;;;;;;;;;;;;;20.35;26.72;101745.61;103397;1320;72855;-83
2022/03/16 04:43:43;;;;;;;;;;;;;;;20.34;26.72;101737.56;103184;1323;75787;-85
2022/03/16 04:46:31;;;;;;;;;;;;;;;20.34;26.74;101742.23;103150;1322;62030;-84
2022/03/16 04:49:16;;;;;;;;;;;;;;;;;;;;;
2022/03/16 04:51:47;;;;;;;;;;;;;;;20.34;26.70;101737.75;103175;1322;73760;-83
2022/03/16 04:54:22;;;;;;;;;;;;;;;20.34;26.62;101732.42;103179;1323;76248;-84
2022/03/16 04:56:53;;;;;;;;;;;;;;;20.34;26.65;101739.39;103282;1323;62027;-84
2022/03/16 04:59:54;;;;;;;;;;;;;;;20.33;26.63;101732.43;103225;1322;62095;-84
2022/03/16 05:02:25;;;;;;;;;;;;;;;20.33;26.66;101741.38;102714;1326;72919;-82
2022/03/16 05:05:16;;;;;;;;;;;;;;;20.33;26.57;101746.77;102715;1329;76910;-86
2022/03/16 05:07:59;;;;;;;;;;;;;;;20.32;26.48;101744.66;102437;1332;62129;-82
2022/03/16 05:10:28;;;;;;;;;;;;;;;20.32;26.54;101736.10;102464;1332;62217;-83
2022/03/16 05:13:00;;;;;;;;;;;;;;;20.31;26.38;101740.24;102484;1332;62104;-82
2022/03/16 05:16:03;;;;;;;;;;;;;;;20.30;26.45;101738.00;102406;1332;74353;-84
2022/03/16 05:18:31;;;;;;;;;;;;;;;20.29;26.41;101738.75;102433;1332;62222;-82
2022/03/16 05:23:59;;;;;;;;;;;;;;;20.26;26.26;101720.52;102351;1332;72748;-81
2022/03/16 05:26:25;;;;;;;;;;;;;;;20.24;26.26;101729.90;102337;1332;76940;-83
2022/03/16 05:29:17;;;;;;;;;;;;;;;20.22;26.21;101737.52;102401;1332;61990;-82
2022/03/16 05:31:43;;;;;;;;;;;;;;;20.20;26.08;101740.64;102301;1332;62136;-83
2022/03/16 05:34:26;;;;;;;;;;;;;;;;;;;;;
2022/03/16 05:36:56;;;;;;;;;;;;;;;20.17;26.13;101740.95;102366;1332;75708;-82
2022/03/16 05:39:22;;;;;;;;;;;;;;;20.16;26.07;101743.72;102197;1326;62084;-82
2022/03/16 05:41:55;;;;;;;;;;;;;;;20.15;26.02;101741.09;102415;1326;62335;-82
2022/03/16 05:44:21;;;;;;;;;;;;;;;20.15;25.99;101733.42;102381;1320;72852;-82
2022/03/16 05:46:46;;;;;;;;;;;;;;;20.15;25.94;101739.83;102589;1319;62231;-81
2022/03/16 05:49:12;;;;;;;;;;;;;;;20.17;25.99;101743.34;102961;1319;62285;-81
2022/03/16 05:51:37;;;;;;;;;;;;;;;20.18;26.06;101736.46;103075;1319;62161;-81
2022/03/16 05:54:03;;;;;;;;;;;;;;;20.19;25.88;101736.23;102743;1320;62018;-82
2022/03/16 05:56:30;;;;;;;;;;;;;;;20.22;25.85;101731.80;102694;1319;71977;-81
2022/03/16 05:58:55;;;;;;;;;;;;;;;20.24;25.98;101726.14;102578;1320;62181;-82
2022/03/16 06:01:21;;;;;;;;;;;;;;;20.24;25.86;101735.98;102375;1321;63879;-82
2022/03/16 06:03:52;;;;;;;;;;;;;;;20.24;25.84;101754.55;103573;1319;60542;-82
2022/03/16 06:06:20;;;;;;;;;;;;;;;20.25;25.92;101746.27;102595;1319;62263;-82
2022/03/16 06:08:45;;;;;;;;;;;;;;;20.29;25.61;101750.23;102641;1319;75685;-80
2022/03/16 06:11:11;;;;;;;;;;;;;;;20.31;25.63;101746.52;102800;1319;62249;-81
2022/03/16 06:13:36;;;;;;;;;;;;;;;20.33;25.54;101743.73;102692;1319;62106;-82
2022/03/16 06:16:02;;;;;;;;;;;;;;;20.34;25.54;101748.33;102593;1320;62135;-82
2022/03/16 06:18:30;;;;;;;;;;;;;;;20.35;25.41;101744.33;102852;1319;62168;-81
2022/03/16 06:20:57;;;;;;;;;;;;;;;20.38;25.35;101735.40;102815;1318;62132;-81
2022/03/16 06:23:22;;;;;;;;;;;;;;;20.42;25.37;101731.08;102487;1320;62191;-81
2022/03/16 06:25:48;;;;;;;;;;;;;;;20.47;25.33;101731.92;102528;1320;62154;-81
2022/03/16 06:28:13;;;;;;;;;;;;;;;20.50;25.49;101731.39;102582;1319;62218;-81
2022/03/16 06:30:40;;;;;;;;;;;;;;;20.52;25.38;101738.58;102555;1319;62244;-80
2022/03/16 06:33:06;;;;;;;;;;;;;;;20.54;25.27;101729.00;102640;1319;62646;-80
2022/03/16 06:35:32;;;;;;;;;;;;;;;20.55;25.26;101727.90;102334;1320;62994;-82
2022/03/16 06:37:58;;;;;;;;;;;;;;;20.54;25.12;101731.50;102488;1320;62334;-81
2022/03/16 06:40:23;;;;;;;;;;;;;;;20.56;25.00;101727.27;102972;1319;62166;-82
2022/03/16 06:42:49;;;;;;;;;;;;;;;20.59;25.08;101722.65;102569;1320;62177;-83
2022/03/16 06:45:16;;;;;;;;;;;;;;;20.64;25.04;101716.31;102963;1319;62258;-81
2022/03/16 06:47:41;;;;;;;;;;;;;;;20.69;25.06;101716.08;101617;1319;1471515;-81
2022/03/16 06:50:07;;;;;;;;;;;;;;;20.73;25.13;101716.35;102571;1319;62193;-85
2022/03/16 06:52:32;;;;;;;;;;;;;;;20.78;25.21;101713.77;102232;1319;75705;-80
2022/03/16 06:54:59;;;;;;;;;;;;;;;20.77;25.15;101718.67;102521;1319;62397;-80
2022/03/16 06:57:24;;;;;;;;;;;;;;;20.64;25.06;101719.52;102498;1320;62271;-81
2022/03/16 06:59:50;;;;;;;;;;;;;;;20.51;25.01;101717.34;102877;1319;62580;-80
2022/03/16 07:02:16;;;;;;;;;;;;;;;20.45;25.07;101718.94;102643;1320;62152;-81
2022/03/16 07:04:41;;;;;;;;;;;;;;;20.40;25.25;101717.78;102298;1320;62103;-81
2022/03/16 07:07:07;;;;;;;;;;;;;;;20.38;25.17;101719.16;102458;1319;62333;-81
2022/03/16 07:09:33;;;;;;;;;;;;;;;20.39;25.27;101719.45;102319;1320;62018;-81
2022/03/16 07:11:59;;;;;;;;;;;;;;;20.41;25.30;101728.23;102382;1320;62195;-80
2022/03/16 07:14:30;;;;;;;;;;;;;;;20.46;25.36;101733.01;102488;1320;62234;-82
2022/03/16 07:16:57;;;;;;;;;;;;;;;20.52;25.37;101734.66;102506;1320;62031;-81
2022/03/16 07:19:23;;;;;;;;;;;;;;;20.59;25.33;101737.67;102414;1320;62020;-82
2022/03/16 07:21:50;;;;;;;;;;;;;;;20.65;25.28;101736.09;102562;1319;62162;-81
2022/03/16 07:24:41;;;;;;;;;;;;;;;20.71;25.49;101729.72;102511;1320;75760;-80
2022/03/16 07:27:07;;;;;;;;;;;;;;;20.78;25.50;101728.26;102107;1324;62187;-81
2022/03/16 07:29:33;;;;;;;;;;;;;;;20.85;25.50;101720.56;102269;1326;62018;-81
2022/03/16 07:31:59;;;;;;;;;;;;;;;20.91;25.53;101714.47;102190;1326;62228;-81
2022/03/16 07:34:26;;;;;;;;;;;;;;;20.95;25.58;101714.79;102217;1326;62341;-81
2022/03/16 07:36:53;;;;;;;;;;;;;;;20.99;25.53;101720.13;102116;1326;62110;-80
2022/03/16 07:39:19;;;;;;;;;;;;;;;21.03;25.69;101724.03;102108;1325;62218;-81
2022/03/16 07:41:44;;;;;;;;;;;;;;;21.06;25.66;101726.34;101859;1326;62418;-80
2022/03/16 07:44:10;;;;;;;;;;;;;;;21.09;25.69;101714.92;102022;1325;62089;-80
2022/03/16 07:46:36;;;;;;;;;;;;;;;21.11;25.69;101705.67;102377;1323;62502;-81
2022/03/16 07:49:01;;;;;;;;;;;;;;;21.11;25.67;101711.23;102327;1325;62163;-82
2022/03/16 07:51:27;;;;;;;;;;;;;;;21.11;25.67;101716.39;102048;1325;62439;-80
2022/03/16 07:53:52;;;;;;;;;;;;;;;21.07;25.56;101718.03;101901;1326;62215;-80
2022/03/16 07:56:18;;;;;;;;;;;;;;;20.94;25.40;101716.09;102159;1324;62099;-81
2022/03/16 07:58:45;;;;;;;;;;;;;;;20.76;25.31;101716.21;101884;1326;62196;-81
2022/03/16 08:01:11;;;;;;;;;;;;;;;20.68;25.46;101713.44;102079;1326;62098;-81
2022/03/16 08:03:38;;;;;;;;;;;;;;;20.65;25.49;101709.65;102024;1321;62043;-80
2022/03/16 08:06:04;;;;;;;;;;;;;;;20.65;25.57;101708.56;102384;1319;62441;-82
2022/03/16 08:08:30;;;;;;;;;;;;;;;20.65;25.61;101709.83;102486;1319;62138;-83
2022/03/16 08:10:56;;;;;;;;;;;;;;;20.64;25.50;101708.30;102603;1319;63058;-82
2022/03/16 08:13:21;;;;;;;;;;;;;;;20.66;25.61;101707.45;102603;1320;62521;-80
2022/03/16 08:15:47;;;;;;;;;;;;;;;20.69;25.59;101700.69;102327;1320;72852;-80
2022/03/16 08:18:15;;;;;;;;;;;;;;;20.73;25.53;101694.35;102558;1319;60849;-81
2022/03/16 08:20:40;;;;;;;;;;;;;;;20.79;25.64;101702.09;102629;1320;62130;-82
2022/03/16 08:23:41;;;;;;;;;;;;;;;20.86;25.56;101709.77;102773;1320;62377;-82
2022/03/16 08:26:07;;;;;;;;;;;;;;;20.91;25.58;101706.39;102274;1325;74142;-81
2022/03/16 08:28:33;;;;;;;;;;;;;;;20.97;25.67;101705.21;102210;1325;62218;-82
2022/03/16 08:31:01;;;;;;;;;;;;;;;21.01;25.64;101698.20;102168;1326;62084;-82
2022/03/16 08:33:26;;;;;;;;;;;;;;;21.04;25.67;101691.77;102230;1326;62526;-81
2022/03/16 08:35:52;;;;;;;;;;;;;;;21.07;25.68;101690.30;102059;1325;62146;-80
2022/03/16 08:38:18;;;;;;;;;;;;;;;21.08;25.67;101681.48;102090;1326;62216;-81
2022/03/16 08:40:43;;;;;;;;;;;;;;;21.05;25.66;101674.13;102122;1325;62161;-85
2022/03/16 08:43:09;;;;;;;;;;;;;;;21.03;25.61;101670.50;102127;1326;62295;-81
2022/03/16 08:45:36;;;;;;;;;;;;;;;21.02;25.52;101668.96;102060;1326;62052;-80
2022/03/16 08:48:01;;;;;;;;;;;;;;;20.98;25.37;101665.94;101977;1325;71782;-82
2022/03/16 08:50:29;;;;;;;;;;;;;;;20.94;25.36;101666.02;101949;1326;62166;-82
2022/03/16 08:52:55;;;;;;;;;;;;;;;20.85;25.21;101667.42;101939;1325;64258;-82
2022/03/16 08:55:24;;;;;;;;;;;;;;;20.71;25.05;101674.44;101980;1326;62145;-82
2022/03/16 08:57:52;;;;;;;;;;;;;;;20.56;24.96;101681.84;102123;1326;73127;-82
2022/03/16 09:00:19;;;;;;;;;;;;;;;20.44;25.10;101685.94;102127;1326;75870;-82
2022/03/16 09:02:45;;;;;;;;;;;;;;;20.35;25.15;101687.84;102476;1319;62108;-81
2022/03/16 09:05:17;;;;;;;;;;;;;;;20.30;25.21;101687.91;102312;1320;62232;-81
2022/03/16 09:07:43;;;;;;;;;;;;;;;20.25;25.19;101690.33;103797;1320;73916;-82
2022/03/16 09:10:08;;;;;;;;;;;;;;;20.17;25.13;101690.95;103955;1320;60456;-82
2022/03/16 09:12:34;;;;;;;;;;;;;;;20.13;25.26;101693.32;104113;1319;61217;-81
2022/03/16 09:15:00;;;;;;;;;;;;;;;20.13;25.29;101694.71;102649;1320;62217;-83
2022/03/16 09:17:25;;;;;;;;;;;;;;;20.14;25.17;101692.36;102519;1320;62143;-82
2022/03/16 09:19:52;;;;;;;;;;;;;;;20.13;25.11;101693.85;102648;1320;63710;-80
2022/03/16 09:22:20;;;;;;;;;;;;;;;20.12;25.06;101691.76;102541;1320;75542;-81
2022/03/16 09:24:48;;;;;;;;;;;;;;;20.12;24.95;101687.27;102629;1320;62617;-80
2022/03/16 09:27:16;;;;;;;;;;;;;;;20.14;25.01;101685.90;102719;1320;62155;-80
2022/03/16 09:29:45;;;;;;;;;;;;;;;20.18;24.96;101681.94;102660;1320;73717;-81
2022/03/16 09:32:10;;;;;;;;;;;;;;;20.23;24.98;101679.88;102434;1320;75422;-81
2022/03/16 09:34:36;;;;;;;;;;;;;;;20.28;24.84;101679.81;102590;1320;62292;-82
2022/03/16 09:37:03;;;;;;;;;;;;;;;20.28;24.81;101673.90;102668;1320;62533;-81
2022/03/16 09:39:28;;;;;;;;;;;;;;;20.27;24.81;101670.02;102685;1320;62103;-80
2022/03/16 09:41:55;;;;;;;;;;;;;;;20.28;24.85;101673.38;102584;1320;62178;-82
2022/03/16 09:44:22;;;;;;;;;;;;;;;20.29;24.84;101673.52;102651;1319;62142;-81
2022/03/16 09:46:48;;;;;;;;;;;;;;;20.29;24.81;101670.46;102619;1320;60381;-81
2022/03/16 09:49:17;;;;;;;;;;;;;;;20.28;24.75;101673.54;102651;1320;62147;-83
2022/03/16 09:51:42;;;;;;;;;;;;;;;20.29;24.77;101669.23;102258;1320;75508;-81
2022/03/16 09:54:08;;;;;;;;;;;;;;;20.30;24.73;101667.55;102246;1320;62262;-80
2022/03/16 09:56:34;;;;;;;;;;;;;;;20.27;24.65;101659.66;102411;1320;62301;-80
2022/03/16 09:59:00;;;;;;;;;;;;;;;20.22;24.59;101662.62;102555;1320;62136;-81
2022/03/16 10:01:26;;;;;;;;;;;;;;;20.12;24.62;101660.85;102513;1320;63621;-81
2022/03/16 10:03:52;;;;;;;;;;;;;;;19.89;24.64;101655.27;102424;1322;62189;-82
2022/03/16 10:06:21;;;;;;;;;;;;;;;19.70;24.99;101647.47;102668;1320;62198;-81
2022/03/16 10:14:15;;;;;;;;;;;;;;;19.93;25.45;101655.05;102416;1320;76654;-80
2022/03/16 10:19:49;;;;;;;;;;;;;;;20.11;25.81;101650.87;102654;1320;62177;-81
2022/03/16 10:22:27;;;;;;;;;;;;;;;20.19;25.89;101642.42;102929;1320;72730;-79
2022/03/16 10:25:03;;;;;;;;;;;;;;;20.27;25.90;101644.84;102677;1319;76636;-81
2022/03/16 10:27:31;;;;;;;;;;;;;;;20.33;26.00;101635.36;102698;1319;62032;-80
2022/03/16 10:29:56;;;;;;;;;;;;;;;20.39;26.12;101626.64;102487;1320;62029;-80
2022/03/16 10:32:22;;;;;;;;;;;;;;;20.45;26.15;101624.87;102418;1320;62209;-80
2022/03/16 10:34:50;;;;;;;;;;;;;;;20.52;26.24;101624.33;102590;1320;62115;-79
2022/03/16 10:37:23;;;;;;;;;;;;;;;20.55;26.18;101624.89;102690;1320;62138;-79
2022/03/16 10:39:49;;;;;;;;;;;;;;;20.56;26.27;101625.52;102719;1320;62070;-81
2022/03/16 10:48:14;;;;;;;;;;;;;;;20.68;26.39;101618.27;102436;1320;62045;-82
2022/03/16 10:50:40;;;;;;;;;;;;;;;20.69;26.33;101613.72;102724;1319;62411;-80
2022/03/16 10:53:09;;;;;;;;;;;;;;;20.70;26.39;101614.92;102454;1320;62144;-80
2022/03/16 10:55:35;;;;;;;;;;;;;;;20.52;26.15;101608.03;102400;1320;76487;-82
2022/03/16 10:58:02;;;;;;;;;;;;;;;20.23;26.01;101607.31;104254;1319;59918;-81
2022/03/16 11:00:27;;;;;;;;;;;;;;;20.10;26.01;101610.52;104202;1320;60381;-80
2022/03/16 11:02:53;;;;;;;;;;;;;;;20.09;26.12;101618.45;104001;1320;62010;-81
2022/03/16 11:05:20;;;;;;;;;;;;;;;20.08;26.09;101624.73;103885;1320;60816;-81
2022/03/16 11:07:48;;;;;;;;;;;;;;;20.10;26.15;101627.35;104188;1320;60443;-80
2022/03/16 11:10:13;;;;;;;;;;;;;;;20.11;25.90;101634.08;104137;1319;61733;-80
2022/03/16 11:15:23;;;;;;;;;;;;;;;20.14;25.77;101643.04;103864;1320;75595;-81
2022/03/16 11:17:51;;;;;;;;;;;;;;;20.14;25.90;101642.11;102513;1320;62126;-82
2022/03/16 11:20:19;;;;;;;;;;;;;;;20.17;25.70;101636.25;102821;1320;62228;-82
2022/03/16 11:25:34;;;;;;;;;;;;;;;20.14;25.59;101638.20;102527;1320;77540;-80
2022/03/16 11:28:00;;;;;;;;;;;;;;;20.15;25.60;101636.39;102616;1320;61909;-81
2022/03/16 11:30:33;;;;;;;;;;;;;;;20.16;25.60;101633.48;102519;1320;62259;-81
2022/03/16 11:33:16;;;;;;;;;;;;;;;20.16;25.55;101632.92;102791;1320;72792;-81
2022/03/16 11:35:45;;;;;;;;;;;;;;;20.16;25.54;101632.56;102822;1320;76780;-83
2022/03/16 11:38:15;;;;;;;;;;;;;;;20.14;25.57;101633.04;102639;1320;62075;-81
2022/03/16 11:40:41;;;;;;;;;;;;;;;20.13;25.59;101630.61;102525;1320;61993;-81
2022/03/16 11:43:08;;;;;;;;;;;;;;;20.08;25.41;101625.80;102381;1320;75176;-80
2022/03/16 11:45:50;;;;;;;;;;;;;;;20.04;25.53;101624.95;102731;1320;77874;-80
2022/03/16 11:48:31;;;;;;;;;;;;;;;19.98;25.38;101617.96;104010;1320;60263;-81
2022/03/16 11:51:08;;;;;;;;;;;;;;;19.96;25.42;101616.50;103928;1320;61721;-82
2022/03/16 11:53:49;;;;;;;;;;;;;;;19.91;25.39;101612.09;103839;1321;72790;-81
2022/03/16 11:56:20;;;;;;;;;;;;;;;19.83;25.38;101604.13;103961;1320;75646;-80
2022/03/16 11:58:49;;;;;;;;;;;;;;;19.81;25.41;101603.69;104189;1320;60291;-80
2022/03/16 12:01:31;;;;;;;;;;;;;;;19.83;25.57;101601.29;103728;1323;60433;-81
2022/03/16 12:03:58;;;;;;;;;;;;;;;19.85;25.49;101603.81;103896;1322;73166;-80
2022/03/16 12:06:30;;;;;;;;;;;;;;;19.84;25.50;101598.89;104012;1320;75600;-81
2022/03/16 12:08:59;;;;;;;;;;;;;;;19.82;25.46;101597.04;103017;1319;60196;-81
2022/03/16 12:14:09;;;;;;;;;;;;;;;19.80;25.54;101590.85;102562;1320;73720;-81
2022/03/16 12:16:43;;;;;;;;;;;;;;;19.80;25.43;101590.15;102612;1320;62155;-81
2022/03/16 12:19:29;;;;;;;;;;;;;;;19.80;25.41;101587.45;102644;1320;62052;-82
2022/03/16 12:21:56;;;;;;;;;;;;;;;19.81;25.46;101583.14;102614;1322;62181;-81
2022/03/16 12:30:03;;;;;;;;;;;;;;;19.83;25.45;101569.31;102881;1320;62109;-82
2022/03/16 12:32:37;;;;;;;;;;;;;;;19.82;25.34;101568.80;102751;1320;62102;-80
2022/03/16 12:35:35;;;;;;;;;;;;;;;19.81;25.35;101568.33;102778;1320;72357;-84
2022/03/16 12:38:05;;;;;;;;;;;;;;;19.76;25.26;101569.96;102174;1328;75626;-81
2022/03/16 12:43:41;;;;;;;;;;;;;;;19.71;25.20;101566.67;101855;1335;62050;-81
2022/03/16 12:46:25;;;;;;;;;;;;;;;19.70;25.20;101570.13;101745;1335;72820;-81
2022/03/16 12:48:59;;;;;;;;;;;;;;;19.71;25.70;101565.80;101815;1332;75636;-81
2022/03/16 12:51:43;;;;;;;;;;;;;;;19.71;25.83;101565.79;101699;1333;62342;-80
2022/03/16 12:54:09;;;;;;;;;;;;;;;19.63;25.60;101566.03;101586;1332;62302;-83
2022/03/16 12:56:38;;;;;;;;;;;;;;;19.53;25.58;101563.70;101557;1334;62219;-80
2022/03/16 12:59:05;;;;;;;;;;;;;;;19.54;25.81;101562.37;101622;1330;76465;-80
2022/03/16 13:01:30;;;;;;;;;;;;;;;19.59;25.99;101560.88;101651;1332;62061;-81
2022/03/16 13:04:01;;;;;;;;;;;;;;;19.62;26.05;101557.89;101679;1332;62184;-82
2022/03/16 13:06:28;;;;;;;;;;;;;;;19.65;26.00;101554.33;101684;1331;73941;-81
2022/03/16 13:08:54;;;;;;;;;;;;;;;19.68;26.02;101554.88;101693;1332;75601;-81
2022/03/16 13:11:25;;;;;;;;;;;;;;;19.70;26.00;101552.98;101672;1332;63396;-81
2022/03/16 13:14:13;;;;;;;;;;;;;;;19.71;25.93;101546.48;101828;1329;62101;-82
2022/03/16 13:16:40;;;;;;;;;;;;;;;19.72;25.87;101550.19;102288;1329;75426;-80
2022/03/16 13:19:07;;;;;;;;;;;;;;;19.74;25.81;101554.22;102163;1329;76696;-81
2022/03/16 13:21:34;;;;;;;;;;;;;;;19.75;25.87;101557.35;102840;1319;61859;-81
2022/03/16 13:24:23;;;;;;;;;;;;;;;19.76;25.74;101563.36;102752;1320;62590;-81
2022/03/16 13:26:48;;;;;;;;;;;;;;;19.77;25.58;101573.88;102271;1326;72438;-84
2022/03/16 13:29:42;;;;;;;;;;;;;;;19.77;25.58;101578.30;102287;1329;76688;-82
2022/03/16 13:32:09;;;;;;;;;;;;;;;19.79;25.52;101577.69;102019;1332;62004;-82
2022/03/16 13:34:35;;;;;;;;;;;;;;;19.81;25.46;101580.63;102051;1332;62387;-80
2022/03/16 13:37:03;;;;;;;;;;;;;;;19.83;25.50;101581.64;101931;1332;62241;-81
2022/03/16 13:39:30;;;;;;;;;;;;;;;19.84;25.39;101582.98;101899;1332;76564;-82
2022/03/16 13:42:05;;;;;;;;;;;;;;;19.85;25.34;101583.67;101898;1332;62231;-80
2022/03/16 13:44:37;;;;;;;;;;;;;;;19.86;25.39;101583.95;101845;1330;62327;-80
2022/03/16 13:47:22;;;;;;;;;;;;;;;19.89;25.31;101582.20;102037;1332;74091;-81